sensor_id;sensor_type;location;lat;lon;timestamp;P1;durP1;ratioP1;P2;durP2;ratioP2
18702;SDS011;9481;48.796;9.210;2023-03-01T00:01:58;14.03;;;8.87;;
18702;SDS011;9481;48.796;9.210;2023-03-01T00:04:24;16.37;;;9.10;;
18702;SDS011;9481;48.796;9.210;2023-03-01T00:06:50;15.83;;;9.10;;
18702;SDS011;9481;48.796;9.210;2023-03-01T00:09:16;13.83;;;9.03;;
18702;SDS011;9481;48.796;9.210;2023-03-01T00:11:42;14.23;;;9.23;;
18702;SDS011;9481;48.796;9.210;2023-03-01T00:14:08;13.23;;;8.43;;
18702;SDS011;9481;48.796;9.210;2023-03-01T00:16:38;12.73;;;8.80;;
18702;SDS011;9481;48.796;9.210;2023-03-01T00:19:07;14.83;;;9.43;;
18702;SDS011;9481;48.796;9.210;2023-03-01T00:21:39;14.13;;;9.33;;
18702;SDS011;9481;48.796;9.210;2023-03-01T00:24:05;11.93;;;8.70;;
18702;SDS011;9481;48.796;9.210;2023-03-01T00:26:31;13.87;;;9.27;;
18702;SDS011;9481;48.796;9.210;2023-03-01T00:28:57;11.77;;;8.70;;
18702;SDS011;9481;48.796;9.210;2023-03-01T00:31:27;14.27;;;9.33;;
18702;SDS011;9481;48.796;9.210;2023-03-01T00:33:57;13.30;;;9.23;;
18702;SDS011;9481;48.796;9.210;2023-03-01T00:36:26;14.03;;;9.27;;
18702;SDS011;9481;48.796;9.210;2023-03-01T00:38:58;13.37;;;9.17;;
18702;SDS011;9481;48.796;9.210;2023-03-01T00:41:24;14.80;;;8.67;;
18702;SDS011;9481;48.796;9.210;2023-03-01T00:43:54;15.87;;;9.00;;
18702;SDS011;9481;48.796;9.210;2023-03-01T00:46:21;14.80;;;9.33;;
18702;SDS011;9481;48.796;9.210;2023-03-01T00:48:50;15.83;;;9.70;;
18702;SDS011;9481;48.796;9.210;2023-03-01T00:51:17;13.03;;;9.20;;
18702;SDS011;9481;48.796;9.210;2023-03-01T00:53:46;13.63;;;9.10;;
18702;SDS011;9481;48.796;9.210;2023-03-01T00:56:15;13.57;;;8.73;;
18702;SDS011;9481;48.796;9.210;2023-03-01T00:58:41;16.47;;;9.10;;
18702;SDS011;9481;48.796;9.210;2023-03-01T01:01:11;14.40;;;9.20;;
18702;SDS011;9481;48.796;9.210;2023-03-01T01:03:44;17.97;;;9.97;;
18702;SDS011;9481;48.796;9.210;2023-03-01T01:06:26;13.00;;;9.20;;
18702;SDS011;9481;48.796;9.210;2023-03-01T01:08:58;12.17;;;8.67;;
18702;SDS011;9481;48.796;9.210;2023-03-01T01:11:26;13.03;;;9.07;;
18702;SDS011;9481;48.796;9.210;2023-03-01T01:13:54;13.33;;;8.90;;
18702;SDS011;9481;48.796;9.210;2023-03-01T01:16:21;13.57;;;9.27;;
18702;SDS011;9481;48.796;9.210;2023-03-01T01:18:49;13.90;;;8.90;;
18702;SDS011;9481;48.796;9.210;2023-03-01T01:21:16;13.50;;;9.10;;
18702;SDS011;9481;48.796;9.210;2023-03-01T01:23:45;14.00;;;8.70;;
18702;SDS011;9481;48.796;9.210;2023-03-01T01:26:12;14.07;;;9.20;;
18702;SDS011;9481;48.796;9.210;2023-03-01T01:28:47;14.03;;;9.07;;
18702;SDS011;9481;48.796;9.210;2023-03-01T01:31:13;14.00;;;9.50;;
18702;SDS011;9481;48.796;9.210;2023-03-01T01:33:40;12.57;;;8.70;;
18702;SDS011;9481;48.796;9.210;2023-03-01T01:36:06;13.97;;;9.33;;
18702;SDS011;9481;48.796;9.210;2023-03-01T01:38:33;13.33;;;9.60;;
18702;SDS011;9481;48.796;9.210;2023-03-01T01:41:00;15.17;;;9.07;;
18702;SDS011;9481;48.796;9.210;2023-03-01T01:43:27;12.80;;;9.10;;
18702;SDS011;9481;48.796;9.210;2023-03-01T01:45:59;16.83;;;9.67;;
18702;SDS011;9481;48.796;9.210;2023-03-01T01:48:36;14.90;;;9.70;;
18702;SDS011;9481;48.796;9.210;2023-03-01T01:51:14;16.97;;;9.60;;
18702;SDS011;9481;48.796;9.210;2023-03-01T01:53:45;16.67;;;9.93;;
18702;SDS011;9481;48.796;9.210;2023-03-01T01:56:17;15.23;;;10.30;;
18702;SDS011;9481;48.796;9.210;2023-03-01T01:58:45;16.00;;;9.90;;
18702;SDS011;9481;48.796;9.210;2023-03-01T02:01:12;14.63;;;9.80;;
18702;SDS011;9481;48.796;9.210;2023-03-01T02:03:39;14.43;;;9.43;;
18702;SDS011;9481;48.796;9.210;2023-03-01T02:06:14;15.73;;;10.00;;
18702;SDS011;9481;48.796;9.210;2023-03-01T02:08:54;15.67;;;10.20;;
18702;SDS011;9481;48.796;9.210;2023-03-01T02:11:25;14.20;;;9.37;;
18702;SDS011;9481;48.796;9.210;2023-03-01T02:13:54;16.00;;;10.43;;
18702;SDS011;9481;48.796;9.210;2023-03-01T02:16:20;13.80;;;9.60;;
18702;SDS011;9481;48.796;9.210;2023-03-01T02:18:46;14.60;;;10.07;;
18702;SDS011;9481;48.796;9.210;2023-03-01T02:24:24;18.47;;;10.80;;
18702;SDS011;9481;48.796;9.210;2023-03-01T02:27:05;13.37;;;9.83;;
18702;SDS011;9481;48.796;9.210;2023-03-01T02:29:31;13.20;;;9.23;;
18702;SDS011;9481;48.796;9.210;2023-03-01T02:31:58;19.20;;;9.90;;
18702;SDS011;9481;48.796;9.210;2023-03-01T02:34:27;19.77;;;10.90;;
18702;SDS011;9481;48.796;9.210;2023-03-01T02:36:56;15.40;;;9.93;;
18702;SDS011;9481;48.796;9.210;2023-03-01T02:39:48;17.03;;;10.53;;
18702;SDS011;9481;48.796;9.210;2023-03-01T02:42:20;17.13;;;10.63;;
18702;SDS011;9481;48.796;9.210;2023-03-01T02:44:51;14.47;;;10.37;;
18702;SDS011;9481;48.796;9.210;2023-03-01T02:47:16;16.60;;;9.93;;
18702;SDS011;9481;48.796;9.210;2023-03-01T02:49:42;16.87;;;10.27;;
18702;SDS011;9481;48.796;9.210;2023-03-01T02:57:36;16.03;;;10.50;;
18702;SDS011;9481;48.796;9.210;2023-03-01T03:00:08;16.07;;;10.47;;
18702;SDS011;9481;48.796;9.210;2023-03-01T03:02:44;18.83;;;11.00;;
18702;SDS011;9481;48.796;9.210;2023-03-01T03:05:13;15.33;;;10.30;;
18702;SDS011;9481;48.796;9.210;2023-03-01T03:07:46;17.17;;;10.67;;
18702;SDS011;9481;48.796;9.210;2023-03-01T03:10:24;15.70;;;10.03;;
18702;SDS011;9481;48.796;9.210;2023-03-01T03:12:58;15.17;;;9.90;;
18702;SDS011;9481;48.796;9.210;2023-03-01T03:15:35;16.03;;;11.00;;
18702;SDS011;9481;48.796;9.210;2023-03-01T03:18:01;16.73;;;10.93;;
18702;SDS011;9481;48.796;9.210;2023-03-01T03:20:29;19.53;;;11.90;;
18702;SDS011;9481;48.796;9.210;2023-03-01T03:22:55;20.07;;;12.00;;
18702;SDS011;9481;48.796;9.210;2023-03-01T03:25:23;15.57;;;10.13;;
18702;SDS011;9481;48.796;9.210;2023-03-01T03:27:52;18.23;;;11.37;;
18702;SDS011;9481;48.796;9.210;2023-03-01T03:30:21;18.57;;;11.43;;
18702;SDS011;9481;48.796;9.210;2023-03-01T03:32:50;15.57;;;10.50;;
18702;SDS011;9481;48.796;9.210;2023-03-01T03:35:29;17.27;;;11.03;;
18702;SDS011;9481;48.796;9.210;2023-03-01T03:37:58;16.93;;;10.73;;
18702;SDS011;9481;48.796;9.210;2023-03-01T03:40:30;17.90;;;11.13;;
18702;SDS011;9481;48.796;9.210;2023-03-01T03:43:05;17.47;;;11.00;;
18702;SDS011;9481;48.796;9.210;2023-03-01T03:45:34;21.73;;;11.10;;
18702;SDS011;9481;48.796;9.210;2023-03-01T03:48:01;17.70;;;10.73;;
18702;SDS011;9481;48.796;9.210;2023-03-01T03:50:30;15.83;;;10.77;;
18702;SDS011;9481;48.796;9.210;2023-03-01T03:52:57;16.90;;;11.00;;
18702;SDS011;9481;48.796;9.210;2023-03-01T03:55:26;17.33;;;11.43;;
18702;SDS011;9481;48.796;9.210;2023-03-01T03:57:55;16.17;;;11.03;;
18702;SDS011;9481;48.796;9.210;2023-03-01T04:00:27;16.27;;;11.17;;
18702;SDS011;9481;48.796;9.210;2023-03-01T04:02:53;16.90;;;11.10;;
18702;SDS011;9481;48.796;9.210;2023-03-01T04:05:22;19.50;;;11.30;;
18702;SDS011;9481;48.796;9.210;2023-03-01T04:07:48;19.57;;;11.63;;
18702;SDS011;9481;48.796;9.210;2023-03-01T04:10:15;16.43;;;10.80;;
18702;SDS011;9481;48.796;9.210;2023-03-01T04:12:43;17.40;;;11.00;;
18702;SDS011;9481;48.796;9.210;2023-03-01T04:15:10;16.87;;;11.30;;
18702;SDS011;9481;48.796;9.210;2023-03-01T04:17:40;17.57;;;10.77;;
18702;SDS011;9481;48.796;9.210;2023-03-01T04:20:11;17.03;;;11.20;;
18702;SDS011;9481;48.796;9.210;2023-03-01T04:22:42;16.40;;;10.67;;
18702;SDS011;9481;48.796;9.210;2023-03-01T04:25:12;16.63;;;11.37;;
18702;SDS011;9481;48.796;9.210;2023-03-01T04:27:39;18.00;;;10.70;;
18702;SDS011;9481;48.796;9.210;2023-03-01T04:30:06;17.67;;;10.93;;
18702;SDS011;9481;48.796;9.210;2023-03-01T04:32:33;17.63;;;11.13;;
18702;SDS011;9481;48.796;9.210;2023-03-01T04:34:59;19.20;;;11.70;;
18702;SDS011;9481;48.796;9.210;2023-03-01T04:37:25;16.43;;;11.40;;
18702;SDS011;9481;48.796;9.210;2023-03-01T04:39:51;15.57;;;11.20;;
18702;SDS011;9481;48.796;9.210;2023-03-01T04:42:17;18.20;;;11.57;;
18702;SDS011;9481;48.796;9.210;2023-03-01T04:44:43;18.27;;;11.50;;
18702;SDS011;9481;48.796;9.210;2023-03-01T04:47:10;18.43;;;11.10;;
18702;SDS011;9481;48.796;9.210;2023-03-01T04:49:36;18.97;;;11.23;;
18702;SDS011;9481;48.796;9.210;2023-03-01T04:52:02;16.33;;;11.40;;
18702;SDS011;9481;48.796;9.210;2023-03-01T04:54:29;17.00;;;11.23;;
18702;SDS011;9481;48.796;9.210;2023-03-01T04:56:56;20.13;;;11.80;;
18702;SDS011;9481;48.796;9.210;2023-03-01T04:59:23;17.17;;;11.17;;
18702;SDS011;9481;48.796;9.210;2023-03-01T05:01:49;19.20;;;11.67;;
18702;SDS011;9481;48.796;9.210;2023-03-01T05:04:16;18.30;;;11.20;;
18702;SDS011;9481;48.796;9.210;2023-03-01T05:06:42;18.97;;;11.73;;
18702;SDS011;9481;48.796;9.210;2023-03-01T05:09:08;18.63;;;11.53;;
18702;SDS011;9481;48.796;9.210;2023-03-01T05:11:33;16.50;;;10.80;;
18702;SDS011;9481;48.796;9.210;2023-03-01T05:14:04;17.67;;;11.93;;
18702;SDS011;9481;48.796;9.210;2023-03-01T05:16:32;15.70;;;10.73;;
18702;SDS011;9481;48.796;9.210;2023-03-01T05:18:58;16.90;;;12.13;;
18702;SDS011;9481;48.796;9.210;2023-03-01T05:21:24;16.97;;;11.87;;
18702;SDS011;9481;48.796;9.210;2023-03-01T05:23:50;16.77;;;11.33;;
18702;SDS011;9481;48.796;9.210;2023-03-01T05:26:17;19.37;;;11.77;;
18702;SDS011;9481;48.796;9.210;2023-03-01T05:28:46;17.93;;;11.73;;
18702;SDS011;9481;48.796;9.210;2023-03-01T05:31:12;19.20;;;11.33;;
18702;SDS011;9481;48.796;9.210;2023-03-01T05:33:39;17.37;;;11.80;;
18702;SDS011;9481;48.796;9.210;2023-03-01T05:36:06;18.23;;;11.77;;
18702;SDS011;9481;48.796;9.210;2023-03-01T05:38:34;20.67;;;11.80;;
18702;SDS011;9481;48.796;9.210;2023-03-01T05:41:01;18.07;;;11.23;;
18702;SDS011;9481;48.796;9.210;2023-03-01T05:43:29;17.77;;;12.00;;
18702;SDS011;9481;48.796;9.210;2023-03-01T05:45:59;17.60;;;11.93;;
18702;SDS011;9481;48.796;9.210;2023-03-01T05:48:25;17.53;;;11.93;;
18702;SDS011;9481;48.796;9.210;2023-03-01T05:50:50;21.07;;;11.87;;
18702;SDS011;9481;48.796;9.210;2023-03-01T05:53:17;17.50;;;11.37;;
18702;SDS011;9481;48.796;9.210;2023-03-01T05:55:46;23.07;;;11.80;;
18702;SDS011;9481;48.796;9.210;2023-03-01T05:58:14;19.63;;;11.87;;
18702;SDS011;9481;48.796;9.210;2023-03-01T06:00:42;18.80;;;12.00;;
18702;SDS011;9481;48.796;9.210;2023-03-01T06:03:12;19.90;;;12.20;;
18702;SDS011;9481;48.796;9.210;2023-03-01T06:05:40;19.90;;;11.23;;
18702;SDS011;9481;48.796;9.210;2023-03-01T06:08:06;17.30;;;11.60;;
18702;SDS011;9481;48.796;9.210;2023-03-01T06:10:34;18.70;;;11.57;;
18702;SDS011;9481;48.796;9.210;2023-03-01T06:13:00;17.27;;;11.57;;
18702;SDS011;9481;48.796;9.210;2023-03-01T06:15:26;22.27;;;12.70;;
18702;SDS011;9481;48.796;9.210;2023-03-01T06:17:52;19.20;;;11.93;;
18702;SDS011;9481;48.796;9.210;2023-03-01T06:20:23;18.30;;;12.17;;
18702;SDS011;9481;48.796;9.210;2023-03-01T06:22:52;16.77;;;12.50;;
18702;SDS011;9481;48.796;9.210;2023-03-01T06:25:20;19.17;;;12.40;;
18702;SDS011;9481;48.796;9.210;2023-03-01T06:27:48;19.23;;;12.57;;
18702;SDS011;9481;48.796;9.210;2023-03-01T06:30:15;21.03;;;12.40;;
18702;SDS011;9481;48.796;9.210;2023-03-01T06:32:43;20.30;;;13.60;;
18702;SDS011;9481;48.796;9.210;2023-03-01T06:35:10;19.13;;;12.23;;
18702;SDS011;9481;48.796;9.210;2023-03-01T06:37:38;22.07;;;12.83;;
18702;SDS011;9481;48.796;9.210;2023-03-01T06:40:06;19.27;;;11.90;;
18702;SDS011;9481;48.796;9.210;2023-03-01T06:42:34;18.10;;;12.57;;
18702;SDS011;9481;48.796;9.210;2023-03-01T06:45:01;19.37;;;12.13;;
18702;SDS011;9481;48.796;9.210;2023-03-01T06:47:28;20.83;;;12.80;;
18702;SDS011;9481;48.796;9.210;2023-03-01T06:49:55;20.13;;;12.23;;
18702;SDS011;9481;48.796;9.210;2023-03-01T06:52:20;21.03;;;13.10;;
18702;SDS011;9481;48.796;9.210;2023-03-01T06:54:46;19.23;;;12.57;;
18702;SDS011;9481;48.796;9.210;2023-03-01T06:57:11;22.03;;;12.60;;
18702;SDS011;9481;48.796;9.210;2023-03-01T06:59:37;20.37;;;12.97;;
18702;SDS011;9481;48.796;9.210;2023-03-01T07:02:03;19.00;;;12.03;;
18702;SDS011;9481;48.796;9.210;2023-03-01T07:04:29;16.90;;;10.13;;
18702;SDS011;9481;48.796;9.210;2023-03-01T07:06:55;14.70;;;10.27;;
18702;SDS011;9481;48.796;9.210;2023-03-01T07:09:22;20.17;;;11.90;;
18702;SDS011;9481;48.796;9.210;2023-03-01T07:11:49;17.07;;;11.00;;
18702;SDS011;9481;48.796;9.210;2023-03-01T07:14:15;22.10;;;12.50;;
18702;SDS011;9481;48.796;9.210;2023-03-01T07:16:41;20.97;;;12.57;;
18702;SDS011;9481;48.796;9.210;2023-03-01T07:19:07;15.97;;;12.37;;
18702;SDS011;9481;48.796;9.210;2023-03-01T07:21:32;19.70;;;12.17;;
18702;SDS011;9481;48.796;9.210;2023-03-01T07:23:58;19.30;;;12.87;;
18702;SDS011;9481;48.796;9.210;2023-03-01T07:26:24;19.80;;;12.83;;
18702;SDS011;9481;48.796;9.210;2023-03-01T07:28:49;20.17;;;13.00;;
18702;SDS011;9481;48.796;9.210;2023-03-01T07:31:15;19.03;;;12.27;;
18702;SDS011;9481;48.796;9.210;2023-03-01T07:33:41;20.60;;;12.03;;
18702;SDS011;9481;48.796;9.210;2023-03-01T07:36:07;18.83;;;12.33;;
18702;SDS011;9481;48.796;9.210;2023-03-01T07:38:34;19.57;;;13.23;;
18702;SDS011;9481;48.796;9.210;2023-03-01T07:41:00;18.47;;;12.80;;
18702;SDS011;9481;48.796;9.210;2023-03-01T07:43:28;20.50;;;12.93;;
18702;SDS011;9481;48.796;9.210;2023-03-01T07:45:59;18.30;;;12.40;;
18702;SDS011;9481;48.796;9.210;2023-03-01T07:48:27;18.47;;;12.20;;
18702;SDS011;9481;48.796;9.210;2023-03-01T07:50:54;18.87;;;12.23;;
18702;SDS011;9481;48.796;9.210;2023-03-01T07:53:23;21.53;;;12.77;;
18702;SDS011;9481;48.796;9.210;2023-03-01T07:55:49;19.40;;;12.63;;
18702;SDS011;9481;48.796;9.210;2023-03-01T07:58:14;21.23;;;12.83;;
18702;SDS011;9481;48.796;9.210;2023-03-01T08:00:40;17.33;;;12.37;;
18702;SDS011;9481;48.796;9.210;2023-03-01T08:03:06;19.43;;;12.60;;
18702;SDS011;9481;48.796;9.210;2023-03-01T08:05:31;16.90;;;11.93;;
18702;SDS011;9481;48.796;9.210;2023-03-01T08:07:57;21.50;;;12.63;;
18702;SDS011;9481;48.796;9.210;2023-03-01T08:10:23;20.67;;;13.20;;
18702;SDS011;9481;48.796;9.210;2023-03-01T08:12:50;20.53;;;12.43;;
18702;SDS011;9481;48.796;9.210;2023-03-01T08:15:17;19.87;;;13.07;;
18702;SDS011;9481;48.796;9.210;2023-03-01T08:17:43;18.37;;;13.13;;
18702;SDS011;9481;48.796;9.210;2023-03-01T08:20:09;19.97;;;12.40;;
18702;SDS011;9481;48.796;9.210;2023-03-01T08:22:37;18.37;;;12.77;;
18702;SDS011;9481;48.796;9.210;2023-03-01T08:25:03;18.57;;;12.23;;
18702;SDS011;9481;48.796;9.210;2023-03-01T08:27:29;17.30;;;12.00;;
18702;SDS011;9481;48.796;9.210;2023-03-01T08:29:54;18.87;;;12.57;;
18702;SDS011;9481;48.796;9.210;2023-03-01T08:32:20;18.87;;;12.50;;
18702;SDS011;9481;48.796;9.210;2023-03-01T08:34:46;17.37;;;12.40;;
18702;SDS011;9481;48.796;9.210;2023-03-01T08:37:13;20.40;;;12.40;;
18702;SDS011;9481;48.796;9.210;2023-03-01T08:39:38;17.10;;;11.57;;
18702;SDS011;9481;48.796;9.210;2023-03-01T08:42:04;20.03;;;13.20;;
18702;SDS011;9481;48.796;9.210;2023-03-01T08:44:30;15.37;;;10.70;;
18702;SDS011;9481;48.796;9.210;2023-03-01T08:46:55;17.37;;;12.23;;
18702;SDS011;9481;48.796;9.210;2023-03-01T08:49:22;22.20;;;13.17;;
18702;SDS011;9481;48.796;9.210;2023-03-01T08:51:48;16.47;;;11.27;;
18702;SDS011;9481;48.796;9.210;2023-03-01T08:54:15;16.97;;;11.83;;
18702;SDS011;9481;48.796;9.210;2023-03-01T08:56:45;18.03;;;11.67;;
18702;SDS011;9481;48.796;9.210;2023-03-01T08:59:12;18.07;;;12.83;;
18702;SDS011;9481;48.796;9.210;2023-03-01T09:01:40;18.23;;;12.73;;
18702;SDS011;9481;48.796;9.210;2023-03-01T09:04:08;18.37;;;12.63;;
18702;SDS011;9481;48.796;9.210;2023-03-01T09:06:35;16.70;;;12.23;;
18702;SDS011;9481;48.796;9.210;2023-03-01T09:09:02;18.60;;;12.70;;
18702;SDS011;9481;48.796;9.210;2023-03-01T09:11:30;21.60;;;12.33;;
18702;SDS011;9481;48.796;9.210;2023-03-01T09:13:56;21.00;;;13.47;;
18702;SDS011;9481;48.796;9.210;2023-03-01T09:16:22;16.10;;;12.13;;
18702;SDS011;9481;48.796;9.210;2023-03-01T09:18:52;16.97;;;11.93;;
18702;SDS011;9481;48.796;9.210;2023-03-01T09:21:20;18.97;;;12.60;;
18702;SDS011;9481;48.796;9.210;2023-03-01T09:23:48;20.07;;;12.97;;
18702;SDS011;9481;48.796;9.210;2023-03-01T09:26:15;18.03;;;12.50;;
18702;SDS011;9481;48.796;9.210;2023-03-01T09:28:47;18.27;;;12.23;;
18702;SDS011;9481;48.796;9.210;2023-03-01T09:31:16;19.20;;;13.10;;
18702;SDS011;9481;48.796;9.210;2023-03-01T09:33:48;16.17;;;12.03;;
18702;SDS011;9481;48.796;9.210;2023-03-01T09:36:20;18.00;;;13.30;;
18702;SDS011;9481;48.796;9.210;2023-03-01T09:38:50;16.10;;;11.97;;
18702;SDS011;9481;48.796;9.210;2023-03-01T09:44:24;16.87;;;11.63;;
18702;SDS011;9481;48.796;9.210;2023-03-01T09:47:24;16.50;;;11.50;;
18702;SDS011;9481;48.796;9.210;2023-03-01T09:50:01;18.07;;;12.03;;
18702;SDS011;9481;48.796;9.210;2023-03-01T09:52:50;17.83;;;12.70;;
18702;SDS011;9481;48.796;9.210;2023-03-01T10:01:23;16.07;;;11.17;;
18702;SDS011;9481;48.796;9.210;2023-03-01T10:07:05;14.57;;;11.30;;
18702;SDS011;9481;48.796;9.210;2023-03-01T10:09:34;15.60;;;11.73;;
18702;SDS011;9481;48.796;9.210;2023-03-01T10:12:04;17.13;;;11.97;;
18702;SDS011;9481;48.796;9.210;2023-03-01T10:14:57;17.17;;;11.87;;
18702;SDS011;9481;48.796;9.210;2023-03-01T10:20:42;14.30;;;11.80;;
18702;SDS011;9481;48.796;9.210;2023-03-01T10:23:16;15.37;;;11.67;;
18702;SDS011;9481;48.796;9.210;2023-03-01T10:29:03;14.90;;;10.93;;
18702;SDS011;9481;48.796;9.210;2023-03-01T10:37:16;17.10;;;11.40;;
18702;SDS011;9481;48.796;9.210;2023-03-01T10:40:03;15.27;;;10.73;;
18702;SDS011;9481;48.796;9.210;2023-03-01T10:42:38;15.93;;;11.37;;
18702;SDS011;9481;48.796;9.210;2023-03-01T10:48:05;15.03;;;11.07;;
18702;SDS011;9481;48.796;9.210;2023-03-01T10:50:46;15.73;;;11.50;;
18702;SDS011;9481;48.796;9.210;2023-03-01T10:53:23;15.27;;;10.20;;
18702;SDS011;9481;48.796;9.210;2023-03-01T10:58:39;14.67;;;11.03;;
18702;SDS011;9481;48.796;9.210;2023-03-01T11:04:03;14.57;;;11.50;;
18702;SDS011;9481;48.796;9.210;2023-03-01T11:06:35;15.27;;;11.40;;
18702;SDS011;9481;48.796;9.210;2023-03-01T11:09:15;15.37;;;10.40;;
18702;SDS011;9481;48.796;9.210;2023-03-01T11:11:46;13.03;;;10.17;;
18702;SDS011;9481;48.796;9.210;2023-03-01T11:14:20;14.07;;;10.27;;
18702;SDS011;9481;48.796;9.210;2023-03-01T11:16:58;13.50;;;11.13;;
18702;SDS011;9481;48.796;9.210;2023-03-01T11:19:40;13.57;;;10.60;;
18702;SDS011;9481;48.796;9.210;2023-03-01T11:22:12;13.77;;;10.67;;
18702;SDS011;9481;48.796;9.210;2023-03-01T11:24:49;15.73;;;11.23;;
18702;SDS011;9481;48.796;9.210;2023-03-01T11:27:21;14.57;;;11.27;;
18702;SDS011;9481;48.796;9.210;2023-03-01T11:29:55;13.63;;;10.63;;
18702;SDS011;9481;48.796;9.210;2023-03-01T11:32:45;15.10;;;10.60;;
18702;SDS011;9481;48.796;9.210;2023-03-01T11:35:46;12.93;;;10.10;;
18702;SDS011;9481;48.796;9.210;2023-03-01T11:38:23;14.30;;;10.80;;
18702;SDS011;9481;48.796;9.210;2023-03-01T11:40:54;12.43;;;10.47;;
18702;SDS011;9481;48.796;9.210;2023-03-01T12:03:39;13.60;;;10.60;;
18702;SDS011;9481;48.796;9.210;2023-03-01T12:20:47;12.07;;;10.17;;
18702;SDS011;9481;48.796;9.210;2023-03-01T12:26:47;13.13;;;10.17;;
18702;SDS011;9481;48.796;9.210;2023-03-01T12:44:35;11.43;;;9.97;;
18702;SDS011;9481;48.796;9.210;2023-03-01T12:47:52;13.50;;;10.13;;
18702;SDS011;9481;48.796;9.210;2023-03-01T12:50:40;11.70;;;10.50;;
18702;SDS011;9481;48.796;9.210;2023-03-01T12:53:19;11.43;;;10.23;;
18702;SDS011;9481;48.796;9.210;2023-03-01T12:55:49;12.57;;;10.27;;
18702;SDS011;9481;48.796;9.210;2023-03-01T13:01:45;13.07;;;11.17;;
18702;SDS011;9481;48.796;9.210;2023-03-01T13:04:33;11.70;;;10.53;;
18702;SDS011;9481;48.796;9.210;2023-03-01T13:10:43;11.50;;;10.10;;
18702;SDS011;9481;48.796;9.210;2023-03-01T13:13:24;12.30;;;11.00;;
18702;SDS011;9481;48.796;9.210;2023-03-01T13:15:52;12.47;;;10.00;;
18702;SDS011;9481;48.796;9.210;2023-03-01T13:23:26;11.73;;;10.30;;
18702;SDS011;9481;48.796;9.210;2023-03-01T13:33:53;11.77;;;9.97;;
18702;SDS011;9481;48.796;9.210;2023-03-01T13:39:26;10.30;;;9.30;;
18702;SDS011;9481;48.796;9.210;2023-03-01T13:41:57;10.37;;;9.30;;
18702;SDS011;9481;48.796;9.210;2023-03-01T13:44:34;9.10;;;8.20;;
18702;SDS011;9481;48.796;9.210;2023-03-01T13:54:59;9.80;;;8.83;;
18702;SDS011;9481;48.796;9.210;2023-03-01T13:57:30;9.70;;;8.73;;
18702;SDS011;9481;48.796;9.210;2023-03-01T14:00:00;9.10;;;8.23;;
18702;SDS011;9481;48.796;9.210;2023-03-01T14:02:27;11.70;;;9.70;;
18702;SDS011;9481;48.796;9.210;2023-03-01T14:04:57;11.13;;;9.80;;
18702;SDS011;9481;48.796;9.210;2023-03-01T14:07:25;15.40;;;11.10;;
18702;SDS011;9481;48.796;9.210;2023-03-01T14:09:59;13.00;;;11.70;;
18702;SDS011;9481;48.796;9.210;2023-03-01T14:12:33;12.63;;;11.33;;
18702;SDS011;9481;48.796;9.210;2023-03-01T14:15:49;19.20;;;12.00;;
18702;SDS011;9481;48.796;9.210;2023-03-01T14:19:27;13.70;;;10.97;;
18702;SDS011;9481;48.796;9.210;2023-03-01T14:21:46;13.60;;;11.80;;
18702;SDS011;9481;48.796;9.210;2023-03-01T14:24:20;14.33;;;12.00;;
18702;SDS011;9481;48.796;9.210;2023-03-01T14:26:47;14.60;;;12.43;;
18702;SDS011;9481;48.796;9.210;2023-03-01T14:29:33;14.13;;;11.33;;
18702;SDS011;9481;48.796;9.210;2023-03-01T14:32:12;13.67;;;11.93;;
18702;SDS011;9481;48.796;9.210;2023-03-01T14:34:49;14.00;;;12.07;;
18702;SDS011;9481;48.796;9.210;2023-03-01T14:39:56;13.90;;;11.77;;
18702;SDS011;9481;48.796;9.210;2023-03-01T14:42:25;15.13;;;12.23;;
18702;SDS011;9481;48.796;9.210;2023-03-01T14:44:56;12.87;;;11.47;;
18702;SDS011;9481;48.796;9.210;2023-03-01T14:47:26;12.93;;;11.53;;
18702;SDS011;9481;48.796;9.210;2023-03-01T14:50:05;12.10;;;10.73;;
18702;SDS011;9481;48.796;9.210;2023-03-01T14:52:51;15.03;;;10.70;;
18702;SDS011;9481;48.796;9.210;2023-03-01T14:55:25;13.80;;;10.53;;
18702;SDS011;9481;48.796;9.210;2023-03-01T14:57:58;12.07;;;10.87;;
18702;SDS011;9481;48.796;9.210;2023-03-01T15:00:25;18.27;;;11.33;;
18702;SDS011;9481;48.796;9.210;2023-03-01T15:02:55;12.43;;;10.73;;
18702;SDS011;9481;48.796;9.210;2023-03-01T15:05:28;14.07;;;10.70;;
18702;SDS011;9481;48.796;9.210;2023-03-01T15:07:57;13.30;;;10.43;;
18702;SDS011;9481;48.796;9.210;2023-03-01T15:10:30;13.33;;;10.93;;
18702;SDS011;9481;48.796;9.210;2023-03-01T15:13:12;12.70;;;11.17;;
18702;SDS011;9481;48.796;9.210;2023-03-01T15:15:47;18.87;;;10.43;;
18702;SDS011;9481;48.796;9.210;2023-03-01T15:18:20;13.23;;;10.67;;
18702;SDS011;9481;48.796;9.210;2023-03-01T15:20:51;12.13;;;10.43;;
18702;SDS011;9481;48.796;9.210;2023-03-01T15:23:19;15.93;;;10.70;;
18702;SDS011;9481;48.796;9.210;2023-03-01T15:25:53;12.33;;;11.03;;
18702;SDS011;9481;48.796;9.210;2023-03-01T15:28:25;15.77;;;10.57;;
18702;SDS011;9481;48.796;9.210;2023-03-01T15:31:20;12.07;;;9.73;;
18702;SDS011;9481;48.796;9.210;2023-03-01T15:34:07;12.03;;;9.67;;
18702;SDS011;9481;48.796;9.210;2023-03-01T15:36:47;14.00;;;10.83;;
18702;SDS011;9481;48.796;9.210;2023-03-01T15:45:07;12.10;;;9.80;;
18702;SDS011;9481;48.796;9.210;2023-03-01T15:47:47;13.77;;;10.03;;
18702;SDS011;9481;48.796;9.210;2023-03-01T15:50:33;15.03;;;9.83;;
18702;SDS011;9481;48.796;9.210;2023-03-01T15:53:04;13.17;;;10.73;;
18702;SDS011;9481;48.796;9.210;2023-03-01T15:55:36;15.27;;;10.30;;
18702;SDS011;9481;48.796;9.210;2023-03-01T16:00:37;13.27;;;10.03;;
18702;SDS011;9481;48.796;9.210;2023-03-01T16:03:04;14.70;;;10.47;;
18702;SDS011;9481;48.796;9.210;2023-03-01T16:05:32;14.77;;;10.00;;
18702;SDS011;9481;48.796;9.210;2023-03-01T16:08:00;15.00;;;10.90;;
18702;SDS011;9481;48.796;9.210;2023-03-01T16:10:27;13.27;;;10.20;;
18702;SDS011;9481;48.796;9.210;2023-03-01T16:12:54;13.77;;;10.43;;
18702;SDS011;9481;48.796;9.210;2023-03-01T16:15:22;13.27;;;10.27;;
18702;SDS011;9481;48.796;9.210;2023-03-01T16:17:50;12.20;;;10.37;;
18702;SDS011;9481;48.796;9.210;2023-03-01T16:20:17;13.43;;;10.63;;
18702;SDS011;9481;48.796;9.210;2023-03-01T16:22:43;14.70;;;10.50;;
18702;SDS011;9481;48.796;9.210;2023-03-01T16:25:11;14.73;;;11.27;;
18702;SDS011;9481;48.796;9.210;2023-03-01T16:27:43;15.10;;;11.43;;
18702;SDS011;9481;48.796;9.210;2023-03-01T16:30:14;14.27;;;10.80;;
18702;SDS011;9481;48.796;9.210;2023-03-01T16:32:44;14.10;;;10.90;;
18702;SDS011;9481;48.796;9.210;2023-03-01T16:35:12;14.60;;;11.07;;
18702;SDS011;9481;48.796;9.210;2023-03-01T16:37:41;12.93;;;10.33;;
18702;SDS011;9481;48.796;9.210;2023-03-01T16:40:11;13.47;;;10.97;;
18702;SDS011;9481;48.796;9.210;2023-03-01T16:42:46;14.97;;;10.50;;
18702;SDS011;9481;48.796;9.210;2023-03-01T16:45:13;14.30;;;10.73;;
18702;SDS011;9481;48.796;9.210;2023-03-01T16:47:39;16.40;;;11.70;;
18702;SDS011;9481;48.796;9.210;2023-03-01T16:50:04;16.57;;;11.37;;
18702;SDS011;9481;48.796;9.210;2023-03-01T16:52:30;16.40;;;11.07;;
18702;SDS011;9481;48.796;9.210;2023-03-01T16:54:56;15.70;;;11.43;;
18702;SDS011;9481;48.796;9.210;2023-03-01T16:57:22;15.57;;;10.73;;
18702;SDS011;9481;48.796;9.210;2023-03-01T16:59:51;15.97;;;10.87;;
18702;SDS011;9481;48.796;9.210;2023-03-01T17:02:18;16.60;;;11.50;;
18702;SDS011;9481;48.796;9.210;2023-03-01T17:04:44;15.97;;;11.33;;
18702;SDS011;9481;48.796;9.210;2023-03-01T17:07:17;14.93;;;10.73;;
18702;SDS011;9481;48.796;9.210;2023-03-01T17:09:42;14.33;;;10.40;;
18702;SDS011;9481;48.796;9.210;2023-03-01T17:12:08;15.30;;;10.70;;
18702;SDS011;9481;48.796;9.210;2023-03-01T17:14:37;14.00;;;10.93;;